sensor_id;sensor_type;location;lat;lon;timestamp;P1;durP1;ratioP1;P2;durP2;ratioP2
28170;SDS011;15458;53.346;-1.688;2023-09-30T00:00:00;9.80;;;1.58;;
28170;SDS011;15458;53.346;-1.688;2023-09-30T00:02:26;7.53;;;1.23;;
28170;SDS011;15458;53.346;-1.688;2023-09-30T00:04:52;7.63;;;1.50;;
28170;SDS011;15458;53.346;-1.688;2023-09-30T00:07:18;5.72;;;1.45;;
28170;SDS011;15458;53.346;-1.688;2023-09-30T00:09:45;9.18;;;1.52;;
28170;SDS011;15458;53.346;-1.688;2023-09-30T00:12:10;11.00;;;1.60;;
28170;SDS011;15458;53.346;-1.688;2023-09-30T00:14:36;11.90;;;1.98;;
28170;SDS011;15458;53.346;-1.688;2023-09-30T00:17:02;7.70;;;1.50;;
28170;SDS011;15458;53.346;-1.688;2023-09-30T00:19:28;9.02;;;1.33;;
28170;SDS011;15458;53.346;-1.688;2023-09-30T00:21:54;7.10;;;1.70;;
28170;SDS011;15458;53.346;-1.688;2023-09-30T00:24:19;13.07;;;1.55;;
28170;SDS011;15458;53.346;-1.688;2023-09-30T00:26:48;6.18;;;1.27;;
28170;SDS011;15458;53.346;-1.688;2023-09-30T00:29:15;14.77;;;1.75;;
28170;SDS011;15458;53.346;-1.688;2023-09-30T00:31:44;8.25;;;1.58;;
28170;SDS011;15458;53.346;-1.688;2023-09-30T00:34:09;11.75;;;2.35;;
28170;SDS011;15458;53.346;-1.688;2023-09-30T00:36:35;8.13;;;1.42;;
28170;SDS011;15458;53.346;-1.688;2023-09-30T00:39:01;5.85;;;1.10;;
28170;SDS011;15458;53.346;-1.688;2023-09-30T00:41:27;14.05;;;1.75;;
28170;SDS011;15458;53.346;-1.688;2023-09-30T00:43:53;6.70;;;1.25;;
28170;SDS011;15458;53.346;-1.688;2023-09-30T00:49:12;6.57;;;1.70;;
28170;SDS011;15458;53.346;-1.688;2023-09-30T00:51:39;11.48;;;1.75;;
28170;SDS011;15458;53.346;-1.688;2023-09-30T00:54:05;10.43;;;1.85;;
28170;SDS011;15458;53.346;-1.688;2023-09-30T00:56:31;3.10;;;1.13;;
28170;SDS011;15458;53.346;-1.688;2023-09-30T00:59:02;8.13;;;1.60;;
28170;SDS011;15458;53.346;-1.688;2023-09-30T01:01:28;10.82;;;1.60;;
28170;SDS011;15458;53.346;-1.688;2023-09-30T01:03:54;6.80;;;1.35;;
28170;SDS011;15458;53.346;-1.688;2023-09-30T01:06:24;5.57;;;1.20;;
28170;SDS011;15458;53.346;-1.688;2023-09-30T01:08:52;7.05;;;1.60;;
28170;SDS011;15458;53.346;-1.688;2023-09-30T01:11:18;5.60;;;1.75;;
28170;SDS011;15458;53.346;-1.688;2023-09-30T01:13:44;12.27;;;1.95;;
28170;SDS011;15458;53.346;-1.688;2023-09-30T01:16:10;11.48;;;2.42;;
28170;SDS011;15458;53.346;-1.688;2023-09-30T01:18:39;5.57;;;1.30;;
28170;SDS011;15458;53.346;-1.688;2023-09-30T01:21:07;9.27;;;1.70;;
28170;SDS011;15458;53.346;-1.688;2023-09-30T01:23:34;8.40;;;2.60;;
28170;SDS011;15458;53.346;-1.688;2023-09-30T01:26:01;7.90;;;1.42;;
28170;SDS011;15458;53.346;-1.688;2023-09-30T01:28:28;9.07;;;2.08;;
28170;SDS011;15458;53.346;-1.688;2023-09-30T01:30:55;7.53;;;1.83;;
28170;SDS011;15458;53.346;-1.688;2023-09-30T01:33:21;9.48;;;1.70;;
28170;SDS011;15458;53.346;-1.688;2023-09-30T01:35:47;5.88;;;2.13;;
28170;SDS011;15458;53.346;-1.688;2023-09-30T01:38:13;8.07;;;1.67;;
28170;SDS011;15458;53.346;-1.688;2023-09-30T01:40:38;11.60;;;1.75;;
28170;SDS011;15458;53.346;-1.688;2023-09-30T01:43:04;5.22;;;1.45;;
28170;SDS011;15458;53.346;-1.688;2023-09-30T01:45:30;9.05;;;1.80;;
28170;SDS011;15458;53.346;-1.688;2023-09-30T01:47:55;5.82;;;2.45;;
28170;SDS011;15458;53.346;-1.688;2023-09-30T01:50:21;8.32;;;1.27;;
28170;SDS011;15458;53.346;-1.688;2023-09-30T01:52:47;6.35;;;1.58;;
28170;SDS011;15458;53.346;-1.688;2023-09-30T01:55:12;10.27;;;2.00;;
28170;SDS011;15458;53.346;-1.688;2023-09-30T01:57:38;6.22;;;1.48;;
28170;SDS011;15458;53.346;-1.688;2023-09-30T02:00:04;12.48;;;2.20;;
28170;SDS011;15458;53.346;-1.688;2023-09-30T02:02:31;7.45;;;1.48;;
28170;SDS011;15458;53.346;-1.688;2023-09-30T02:04:57;10.70;;;1.63;;
28170;SDS011;15458;53.346;-1.688;2023-09-30T02:07:23;8.23;;;1.90;;
28170;SDS011;15458;53.346;-1.688;2023-09-30T02:09:52;4.50;;;1.60;;
28170;SDS011;15458;53.346;-1.688;2023-09-30T02:12:18;7.13;;;1.83;;
28170;SDS011;15458;53.346;-1.688;2023-09-30T02:14:43;6.30;;;1.60;;
28170;SDS011;15458;53.346;-1.688;2023-09-30T02:17:11;8.20;;;1.45;;
28170;SDS011;15458;53.346;-1.688;2023-09-30T02:19:38;8.57;;;1.80;;
28170;SDS011;15458;53.346;-1.688;2023-09-30T02:22:05;8.30;;;1.85;;
28170;SDS011;15458;53.346;-1.688;2023-09-30T02:24:31;9.80;;;1.50;;
28170;SDS011;15458;53.346;-1.688;2023-09-30T02:26:57;6.50;;;1.38;;
28170;SDS011;15458;53.346;-1.688;2023-09-30T02:29:23;7.22;;;1.58;;
28170;SDS011;15458;53.346;-1.688;2023-09-30T02:31:49;9.93;;;1.92;;
28170;SDS011;15458;53.346;-1.688;2023-09-30T02:34:15;7.85;;;1.90;;
28170;SDS011;15458;53.346;-1.688;2023-09-30T02:36:40;8.10;;;2.25;;
28170;SDS011;15458;53.346;-1.688;2023-09-30T02:39:07;9.95;;;2.38;;
28170;SDS011;15458;53.346;-1.688;2023-09-30T02:41:34;16.80;;;2.33;;
28170;SDS011;15458;53.346;-1.688;2023-09-30T02:44:00;8.95;;;2.25;;
28170;SDS011;15458;53.346;-1.688;2023-09-30T02:46:26;12.88;;;2.55;;
28170;SDS011;15458;53.346;-1.688;2023-09-30T02:48:54;11.77;;;2.10;;
28170;SDS011;15458;53.346;-1.688;2023-09-30T02:51:20;12.68;;;2.05;;
28170;SDS011;15458;53.346;-1.688;2023-09-30T02:53:46;8.93;;;2.15;;
28170;SDS011;15458;53.346;-1.688;2023-09-30T02:56:13;12.55;;;2.45;;
28170;SDS011;15458;53.346;-1.688;2023-09-30T02:58:39;9.73;;;2.00;;
28170;SDS011;15458;53.346;-1.688;2023-09-30T03:01:05;13.73;;;2.10;;
28170;SDS011;15458;53.346;-1.688;2023-09-30T03:03:32;16.70;;;2.17;;
28170;SDS011;15458;53.346;-1.688;2023-09-30T03:05:58;14.35;;;2.05;;
28170;SDS011;15458;53.346;-1.688;2023-09-30T03:08:25;10.50;;;1.98;;
28170;SDS011;15458;53.346;-1.688;2023-09-30T03:10:51;15.57;;;2.08;;
28170;SDS011;15458;53.346;-1.688;2023-09-30T03:13:17;8.15;;;1.83;;
28170;SDS011;15458;53.346;-1.688;2023-09-30T03:15:46;9.45;;;1.63;;
28170;SDS011;15458;53.346;-1.688;2023-09-30T03:18:14;14.52;;;2.17;;
28170;SDS011;15458;53.346;-1.688;2023-09-30T03:20:42;13.77;;;2.15;;
28170;SDS011;15458;53.346;-1.688;2023-09-30T03:23:08;8.00;;;1.88;;
28170;SDS011;15458;53.346;-1.688;2023-09-30T03:25:35;7.78;;;1.70;;
28170;SDS011;15458;53.346;-1.688;2023-09-30T03:28:01;12.23;;;2.28;;
28170;SDS011;15458;53.346;-1.688;2023-09-30T03:30:27;8.80;;;1.98;;
28170;SDS011;15458;53.346;-1.688;2023-09-30T03:32:54;14.80;;;2.20;;
28170;SDS011;15458;53.346;-1.688;2023-09-30T03:35:20;8.90;;;1.65;;
28170;SDS011;15458;53.346;-1.688;2023-09-30T03:37:46;10.07;;;2.40;;
28170;SDS011;15458;53.346;-1.688;2023-09-30T03:40:13;9.60;;;1.50;;
28170;SDS011;15458;53.346;-1.688;2023-09-30T03:42:42;10.52;;;1.88;;
28170;SDS011;15458;53.346;-1.688;2023-09-30T03:45:09;14.40;;;2.42;;
28170;SDS011;15458;53.346;-1.688;2023-09-30T03:47:36;12.63;;;1.88;;
28170;SDS011;15458;53.346;-1.688;2023-09-30T03:50:02;8.10;;;1.48;;
28170;SDS011;15458;53.346;-1.688;2023-09-30T03:52:30;7.80;;;1.60;;
28170;SDS011;15458;53.346;-1.688;2023-09-30T03:54:58;10.68;;;2.25;;
28170;SDS011;15458;53.346;-1.688;2023-09-30T03:57:31;11.27;;;2.03;;
28170;SDS011;15458;53.346;-1.688;2023-09-30T03:59:57;10.82;;;1.65;;
28170;SDS011;15458;53.346;-1.688;2023-09-30T04:02:22;9.90;;;1.70;;
28170;SDS011;15458;53.346;-1.688;2023-09-30T04:04:48;14.70;;;2.42;;
28170;SDS011;15458;53.346;-1.688;2023-09-30T04:07:17;8.75;;;1.80;;
28170;SDS011;15458;53.346;-1.688;2023-09-30T04:09:43;10.25;;;2.45;;
28170;SDS011;15458;53.346;-1.688;2023-09-30T04:12:08;11.30;;;1.80;;
28170;SDS011;15458;53.346;-1.688;2023-09-30T04:14:34;10.52;;;1.77;;
28170;SDS011;15458;53.346;-1.688;2023-09-30T04:17:00;7.40;;;1.73;;
28170;SDS011;15458;53.346;-1.688;2023-09-30T04:19:25;12.55;;;2.42;;
28170;SDS011;15458;53.346;-1.688;2023-09-30T04:21:55;7.50;;;1.63;;
28170;SDS011;15458;53.346;-1.688;2023-09-30T04:24:22;13.98;;;1.80;;
28170;SDS011;15458;53.346;-1.688;2023-09-30T04:26:47;12.75;;;2.05;;
28170;SDS011;15458;53.346;-1.688;2023-09-30T04:29:15;10.38;;;1.80;;
28170;SDS011;15458;53.346;-1.688;2023-09-30T04:31:42;10.85;;;1.85;;
28170;SDS011;15458;53.346;-1.688;2023-09-30T04:34:09;9.05;;;1.83;;
28170;SDS011;15458;53.346;-1.688;2023-09-30T04:36:34;9.05;;;2.03;;
28170;SDS011;15458;53.346;-1.688;2023-09-30T04:39:00;6.60;;;1.90;;
28170;SDS011;15458;53.346;-1.688;2023-09-30T04:41:26;13.13;;;2.40;;
28170;SDS011;15458;53.346;-1.688;2023-09-30T04:43:52;6.15;;;1.45;;
28170;SDS011;15458;53.346;-1.688;2023-09-30T04:46:18;5.93;;;1.45;;
28170;SDS011;15458;53.346;-1.688;2023-09-30T04:48:45;10.18;;;2.08;;
28170;SDS011;15458;53.346;-1.688;2023-09-30T04:51:13;7.25;;;2.03;;
28170;SDS011;15458;53.346;-1.688;2023-09-30T04:53:41;7.13;;;1.60;;
28170;SDS011;15458;53.346;-1.688;2023-09-30T04:56:07;8.90;;;2.00;;
28170;SDS011;15458;53.346;-1.688;2023-09-30T04:58:32;17.50;;;2.38;;
28170;SDS011;15458;53.346;-1.688;2023-09-30T05:00:58;5.97;;;1.60;;
28170;SDS011;15458;53.346;-1.688;2023-09-30T05:03:23;8.88;;;1.65;;
28170;SDS011;15458;53.346;-1.688;2023-09-30T05:05:50;18.02;;;2.33;;
28170;SDS011;15458;53.346;-1.688;2023-09-30T05:08:23;11.02;;;2.88;;
28170;SDS011;15458;53.346;-1.688;2023-09-30T05:10:49;6.38;;;1.70;;
28170;SDS011;15458;53.346;-1.688;2023-09-30T05:13:15;7.95;;;1.95;;
28170;SDS011;15458;53.346;-1.688;2023-09-30T05:15:41;5.13;;;1.63;;
28170;SDS011;15458;53.346;-1.688;2023-09-30T05:18:07;9.55;;;1.70;;
28170;SDS011;15458;53.346;-1.688;2023-09-30T05:20:35;7.65;;;1.70;;
28170;SDS011;15458;53.346;-1.688;2023-09-30T05:23:04;7.15;;;1.40;;
28170;SDS011;15458;53.346;-1.688;2023-09-30T05:25:32;9.68;;;2.17;;
28170;SDS011;15458;53.346;-1.688;2023-09-30T05:27:57;10.07;;;1.90;;
28170;SDS011;15458;53.346;-1.688;2023-09-30T05:30:23;8.65;;;1.70;;
28170;SDS011;15458;53.346;-1.688;2023-09-30T05:32:49;7.05;;;1.50;;
28170;SDS011;15458;53.346;-1.688;2023-09-30T05:35:17;11.95;;;2.30;;
28170;SDS011;15458;53.346;-1.688;2023-09-30T05:37:43;8.48;;;1.70;;
28170;SDS011;15458;53.346;-1.688;2023-09-30T05:40:12;9.13;;;1.65;;
28170;SDS011;15458;53.346;-1.688;2023-09-30T05:42:47;5.82;;;1.70;;
28170;SDS011;15458;53.346;-1.688;2023-09-30T05:45:16;7.68;;;1.42;;
28170;SDS011;15458;53.346;-1.688;2023-09-30T05:47:42;12.15;;;2.30;;
28170;SDS011;15458;53.346;-1.688;2023-09-30T05:50:09;12.90;;;1.70;;
28170;SDS011;15458;53.346;-1.688;2023-09-30T05:52:39;8.20;;;1.67;;
28170;SDS011;15458;53.346;-1.688;2023-09-30T05:55:07;6.28;;;1.50;;
28170;SDS011;15458;53.346;-1.688;2023-09-30T05:57:33;6.43;;;1.60;;
28170;SDS011;15458;53.346;-1.688;2023-09-30T06:00:00;6.07;;;1.58;;
28170;SDS011;15458;53.346;-1.688;2023-09-30T06:02:36;6.55;;;1.27;;
28170;SDS011;15458;53.346;-1.688;2023-09-30T06:05:02;8.25;;;2.17;;
28170;SDS011;15458;53.346;-1.688;2023-09-30T06:07:28;4.75;;;1.63;;
28170;SDS011;15458;53.346;-1.688;2023-09-30T06:09:54;6.10;;;1.70;;
28170;SDS011;15458;53.346;-1.688;2023-09-30T06:12:20;7.20;;;1.35;;
28170;SDS011;15458;53.346;-1.688;2023-09-30T06:14:45;3.38;;;1.55;;
28170;SDS011;15458;53.346;-1.688;2023-09-30T06:17:11;6.70;;;2.63;;
28170;SDS011;15458;53.346;-1.688;2023-09-30T06:19:37;6.93;;;1.63;;
28170;SDS011;15458;53.346;-1.688;2023-09-30T06:22:02;6.10;;;1.70;;
28170;SDS011;15458;53.346;-1.688;2023-09-30T06:24:29;10.68;;;2.47;;
28170;SDS011;15458;53.346;-1.688;2023-09-30T06:26:55;6.10;;;1.70;;
28170;SDS011;15458;53.346;-1.688;2023-09-30T06:29:23;10.77;;;1.88;;
28170;SDS011;15458;53.346;-1.688;2023-09-30T06:31:49;7.38;;;1.73;;
28170;SDS011;15458;53.346;-1.688;2023-09-30T06:34:14;8.43;;;1.65;;
28170;SDS011;15458;53.346;-1.688;2023-09-30T06:36:40;9.50;;;1.90;;
28170;SDS011;15458;53.346;-1.688;2023-09-30T06:39:06;8.43;;;1.83;;
28170;SDS011;15458;53.346;-1.688;2023-09-30T06:41:31;5.20;;;1.80;;
28170;SDS011;15458;53.346;-1.688;2023-09-30T06:43:58;8.85;;;1.63;;
28170;SDS011;15458;53.346;-1.688;2023-09-30T06:46:24;5.35;;;1.70;;
28170;SDS011;15458;53.346;-1.688;2023-09-30T06:48:50;5.97;;;1.90;;
28170;SDS011;15458;53.346;-1.688;2023-09-30T06:51:17;9.18;;;1.95;;
28170;SDS011;15458;53.346;-1.688;2023-09-30T06:53:43;8.88;;;2.08;;
28170;SDS011;15458;53.346;-1.688;2023-09-30T06:56:09;5.78;;;1.70;;
28170;SDS011;15458;53.346;-1.688;2023-09-30T06:58:34;8.68;;;1.77;;
28170;SDS011;15458;53.346;-1.688;2023-09-30T07:01:00;5.70;;;1.73;;
28170;SDS011;15458;53.346;-1.688;2023-09-30T07:03:26;6.43;;;1.60;;
28170;SDS011;15458;53.346;-1.688;2023-09-30T07:05:51;6.93;;;2.00;;
28170;SDS011;15458;53.346;-1.688;2023-09-30T07:08:19;6.78;;;2.10;;
28170;SDS011;15458;53.346;-1.688;2023-09-30T07:10:46;8.52;;;2.10;;
28170;SDS011;15458;53.346;-1.688;2023-09-30T07:13:15;12.90;;;3.13;;
28170;SDS011;15458;53.346;-1.688;2023-09-30T07:15:41;11.18;;;2.70;;
28170;SDS011;15458;53.346;-1.688;2023-09-30T07:18:07;3.88;;;1.70;;
28170;SDS011;15458;53.346;-1.688;2023-09-30T07:20:33;11.70;;;2.05;;
28170;SDS011;15458;53.346;-1.688;2023-09-30T07:23:02;8.32;;;2.03;;
28170;SDS011;15458;53.346;-1.688;2023-09-30T07:25:29;12.45;;;2.42;;
28170;SDS011;15458;53.346;-1.688;2023-09-30T07:27:57;9.20;;;2.10;;
28170;SDS011;15458;53.346;-1.688;2023-09-30T07:30:23;10.27;;;2.47;;
28170;SDS011;15458;53.346;-1.688;2023-09-30T07:32:50;14.30;;;2.15;;
28170;SDS011;15458;53.346;-1.688;2023-09-30T07:35:15;7.90;;;3.42;;
28170;SDS011;15458;53.346;-1.688;2023-09-30T07:37:42;14.18;;;2.22;;
28170;SDS011;15458;53.346;-1.688;2023-09-30T07:40:08;10.32;;;2.10;;
28170;SDS011;15458;53.346;-1.688;2023-09-30T07:42:35;19.55;;;3.80;;
28170;SDS011;15458;53.346;-1.688;2023-09-30T07:45:02;9.23;;;2.10;;
28170;SDS011;15458;53.346;-1.688;2023-09-30T07:47:29;6.95;;;1.95;;
28170;SDS011;15458;53.346;-1.688;2023-09-30T07:49:59;7.93;;;1.95;;
28170;SDS011;15458;53.346;-1.688;2023-09-30T07:52:27;7.47;;;1.98;;
28170;SDS011;15458;53.346;-1.688;2023-09-30T07:54:53;12.52;;;2.47;;
28170;SDS011;15458;53.346;-1.688;2023-09-30T07:57:19;7.85;;;2.28;;
28170;SDS011;15458;53.346;-1.688;2023-09-30T07:59:45;8.65;;;3.33;;
28170;SDS011;15458;53.346;-1.688;2023-09-30T08:02:11;12.73;;;3.28;;
28170;SDS011;15458;53.346;-1.688;2023-09-30T08:04:37;8.65;;;2.42;;
28170;SDS011;15458;53.346;-1.688;2023-09-30T08:07:02;13.82;;;3.38;;
28170;SDS011;15458;53.346;-1.688;2023-09-30T08:09:28;16.17;;;3.60;;
28170;SDS011;15458;53.346;-1.688;2023-09-30T08:11:54;14.32;;;3.67;;
28170;SDS011;15458;53.346;-1.688;2023-09-30T08:14:21;18.50;;;4.20;;
28170;SDS011;15458;53.346;-1.688;2023-09-30T08:16:47;15.73;;;4.22;;
28170;SDS011;15458;53.346;-1.688;2023-09-30T08:19:14;22.90;;;4.05;;
28170;SDS011;15458;53.346;-1.688;2023-09-30T08:21:40;17.15;;;4.32;;
28170;SDS011;15458;53.346;-1.688;2023-09-30T08:24:06;19.83;;;3.95;;
28170;SDS011;15458;53.346;-1.688;2023-09-30T08:26:33;22.20;;;4.72;;
28170;SDS011;15458;53.346;-1.688;2023-09-30T08:29:00;14.75;;;3.50;;
28170;SDS011;15458;53.346;-1.688;2023-09-30T08:31:26;22.15;;;4.05;;
28170;SDS011;15458;53.346;-1.688;2023-09-30T08:33:52;17.63;;;3.85;;
28170;SDS011;15458;53.346;-1.688;2023-09-30T08:36:17;22.02;;;4.22;;
28170;SDS011;15458;53.346;-1.688;2023-09-30T08:38:43;14.25;;;3.08;;
28170;SDS011;15458;53.346;-1.688;2023-09-30T08:41:09;26.42;;;4.28;;
28170;SDS011;15458;53.346;-1.688;2023-09-30T08:43:39;18.08;;;3.67;;
28170;SDS011;15458;53.346;-1.688;2023-09-30T08:46:05;15.32;;;3.20;;
28170;SDS011;15458;53.346;-1.688;2023-09-30T08:48:32;13.75;;;3.40;;
28170;SDS011;15458;53.346;-1.688;2023-09-30T08:50:59;17.13;;;3.05;;
28170;SDS011;15458;53.346;-1.688;2023-09-30T08:53:26;15.30;;;3.30;;
28170;SDS011;15458;53.346;-1.688;2023-09-30T08:55:53;13.57;;;3.40;;
28170;SDS011;15458;53.346;-1.688;2023-09-30T08:58:21;19.02;;;3.30;;
28170;SDS011;15458;53.346;-1.688;2023-09-30T09:00:49;13.48;;;3.22;;
28170;SDS011;15458;53.346;-1.688;2023-09-30T09:03:15;12.25;;;3.42;;
28170;SDS011;15458;53.346;-1.688;2023-09-30T09:05:43;16.23;;;3.10;;
28170;SDS011;15458;53.346;-1.688;2023-09-30T09:08:08;10.55;;;2.88;;
28170;SDS011;15458;53.346;-1.688;2023-09-30T09:10:34;15.30;;;2.45;;
28170;SDS011;15458;53.346;-1.688;2023-09-30T09:13:01;10.15;;;2.88;;
28170;SDS011;15458;53.346;-1.688;2023-09-30T09:15:28;10.60;;;3.00;;
28170;SDS011;15458;53.346;-1.688;2023-09-30T09:17:54;11.68;;;2.47;;
28170;SDS011;15458;53.346;-1.688;2023-09-30T09:20:21;9.13;;;2.67;;
28170;SDS011;15458;53.346;-1.688;2023-09-30T09:22:49;8.95;;;2.85;;
28170;SDS011;15458;53.346;-1.688;2023-09-30T09:25:19;19.13;;;2.42;;
28170;SDS011;15458;53.346;-1.688;2023-09-30T09:27:52;17.35;;;2.55;;
28170;SDS011;15458;53.346;-1.688;2023-09-30T09:30:19;15.20;;;2.45;;
28170;SDS011;15458;53.346;-1.688;2023-09-30T09:35:28;10.60;;;2.30;;
28170;SDS011;15458;53.346;-1.688;2023-09-30T09:38:03;12.45;;;2.15;;
28170;SDS011;15458;53.346;-1.688;2023-09-30T09:40:33;18.58;;;3.17;;
28170;SDS011;15458;53.346;-1.688;2023-09-30T09:43:00;12.45;;;2.13;;
28170;SDS011;15458;53.346;-1.688;2023-09-30T09:45:30;17.17;;;2.33;;
28170;SDS011;15458;53.346;-1.688;2023-09-30T09:47:58;8.30;;;2.03;;
28170;SDS011;15458;53.346;-1.688;2023-09-30T09:50:24;10.95;;;1.92;;
28170;SDS011;15458;53.346;-1.688;2023-09-30T09:52:51;7.50;;;1.90;;
28170;SDS011;15458;53.346;-1.688;2023-09-30T09:55:20;13.63;;;2.08;;
28170;SDS011;15458;53.346;-1.688;2023-09-30T09:57:47;12.10;;;1.80;;
28170;SDS011;15458;53.346;-1.688;2023-09-30T10:00:18;11.88;;;2.78;;
28170;SDS011;15458;53.346;-1.688;2023-09-30T10:02:46;14.38;;;2.45;;
28170;SDS011;15458;53.346;-1.688;2023-09-30T10:05:12;15.20;;;2.30;;
28170;SDS011;15458;53.346;-1.688;2023-09-30T10:07:56;6.55;;;1.80;;
28170;SDS011;15458;53.346;-1.688;2023-09-30T10:10:27;11.27;;;2.00;;
28170;SDS011;15458;53.346;-1.688;2023-09-30T10:12:54;12.13;;;3.40;;
28170;SDS011;15458;53.346;-1.688;2023-09-30T10:20:28;11.93;;;2.20;;
28170;SDS011;15458;53.346;-1.688;2023-09-30T10:25:42;12.13;;;2.35;;
28170;SDS011;15458;53.346;-1.688;2023-09-30T10:31:10;13.40;;;2.00;;
28170;SDS011;15458;53.346;-1.688;2023-09-30T10:36:29;9.38;;;2.00;;
28170;SDS011;15458;53.346;-1.688;2023-09-30T10:38:57;9.10;;;2.28;;
28170;SDS011;15458;53.346;-1.688;2023-09-30T10:46:51;15.88;;;2.47;;
28170;SDS011;15458;53.346;-1.688;2023-09-30T10:51:52;8.05;;;1.83;;
28170;SDS011;15458;53.346;-1.688;2023-09-30T10:56:49;10.80;;;1.98;;
28170;SDS011;15458;53.346;-1.688;2023-09-30T10:59:21;11.43;;;2.10;;
28170;SDS011;15458;53.346;-1.688;2023-09-30T11:01:49;12.55;;;2.20;;
28170;SDS011;15458;53.346;-1.688;2023-09-30T11:04:15;14.98;;;2.05;;
28170;SDS011;15458;53.346;-1.688;2023-09-30T11:06:44;14.45;;;2.08;;
28170;SDS011;15458;53.346;-1.688;2023-09-30T11:09:14;6.90;;;1.70;;
28170;SDS011;15458;53.346;-1.688;2023-09-30T11:11:45;6.30;;;1.77;;
28170;SDS011;15458;53.346;-1.688;2023-09-30T11:14:25;10.95;;;2.30;;
28170;SDS011;15458;53.346;-1.688;2023-09-30T11:16:58;8.18;;;2.35;;
28170;SDS011;15458;53.346;-1.688;2023-09-30T11:19:35;14.20;;;2.05;;
28170;SDS011;15458;53.346;-1.688;2023-09-30T11:22:02;9.68;;;1.98;;
28170;SDS011;15458;53.346;-1.688;2023-09-30T11:24:28;11.70;;;2.13;;
28170;SDS011;15458;53.346;-1.688;2023-09-30T11:26:55;12.05;;;1.70;;
28170;SDS011;15458;53.346;-1.688;2023-09-30T11:29:23;11.75;;;2.10;;
28170;SDS011;15458;53.346;-1.688;2023-09-30T11:31:54;7.82;;;1.58;;
28170;SDS011;15458;53.346;-1.688;2023-09-30T11:35:04;8.82;;;1.60;;
28170;SDS011;15458;53.346;-1.688;2023-09-30T11:37:47;7.93;;;1.80;;
28170;SDS011;15458;53.346;-1.688;2023-09-30T11:40:13;7.13;;;1.67;;
28170;SDS011;15458;53.346;-1.688;2023-09-30T11:42:39;11.38;;;1.42;;
28170;SDS011;15458;53.346;-1.688;2023-09-30T11:45:18;11.27;;;2.35;;
28170;SDS011;15458;53.346;-1.688;2023-09-30T11:47:45;7.10;;;1.73;;
28170;SDS011;15458;53.346;-1.688;2023-09-30T11:50:14;7.55;;;1.95;;
28170;SDS011;15458;53.346;-1.688;2023-09-30T11:52:43;6.68;;;2.08;;
28170;SDS011;15458;53.346;-1.688;2023-09-30T11:55:11;7.88;;;1.60;;
28170;SDS011;15458;53.346;-1.688;2023-09-30T11:57:37;9.98;;;2.53;;
28170;SDS011;15458;53.346;-1.688;2023-09-30T12:00:04;8.75;;;2.00;;
28170;SDS011;15458;53.346;-1.688;2023-09-30T12:02:38;10.93;;;2.10;;
28170;SDS011;15458;53.346;-1.688;2023-09-30T12:05:05;13.68;;;1.88;;
28170;SDS011;15458;53.346;-1.688;2023-09-30T12:07:36;8.48;;;1.55;;
28170;SDS011;15458;53.346;-1.688;2023-09-30T12:10:06;10.50;;;1.85;;
28170;SDS011;15458;53.346;-1.688;2023-09-30T12:12:35;9.00;;;2.15;;
28170;SDS011;15458;53.346;-1.688;2023-09-30T12:15:00;8.60;;;1.70;;
28170;SDS011;15458;53.346;-1.688;2023-09-30T12:17:27;6.72;;;1.60;;
28170;SDS011;15458;53.346;-1.688;2023-09-30T12:19:53;8.15;;;2.40;;
28170;SDS011;15458;53.346;-1.688;2023-09-30T12:22:18;10.32;;;2.08;;
28170;SDS011;15458;53.346;-1.688;2023-09-30T12:24:45;7.25;;;1.80;;
28170;SDS011;15458;53.346;-1.688;2023-09-30T12:27:11;10.07;;;2.08;;
28170;SDS011;15458;53.346;-1.688;2023-09-30T12:29:37;8.88;;;2.38;;
28170;SDS011;15458;53.346;-1.688;2023-09-30T12:32:06;11.48;;;2.05;;
28170;SDS011;15458;53.346;-1.688;2023-09-30T12:34:32;9.68;;;2.17;;
28170;SDS011;15458;53.346;-1.688;2023-09-30T12:37:01;7.50;;;2.10;;
28170;SDS011;15458;53.346;-1.688;2023-09-30T12:39:28;7.90;;;1.90;;
28170;SDS011;15458;53.346;-1.688;2023-09-30T12:41:58;15.20;;;2.17;;
28170;SDS011;15458;53.346;-1.688;2023-09-30T12:44:23;12.98;;;2.00;;
28170;SDS011;15458;53.346;-1.688;2023-09-30T12:46:49;12.48;;;2.88;;
28170;SDS011;15458;53.346;-1.688;2023-09-30T12:49:15;9.43;;;1.83;;
28170;SDS011;15458;53.346;-1.688;2023-09-30T12:51:41;7.68;;;1.75;;
28170;SDS011;15458;53.346;-1.688;2023-09-30T12:54:06;12.50;;;2.20;;
28170;SDS011;15458;53.346;-1.688;2023-09-30T12:56:33;10.20;;;2.55;;
28170;SDS011;15458;53.346;-1.688;2023-09-30T12:59:00;10.15;;;1.85;;
28170;SDS011;15458;53.346;-1.688;2023-09-30T13:01:25;8.02;;;2.75;;
28170;SDS011;15458;53.346;-1.688;2023-09-30T13:03:53;14.40;;;2.28;;
28170;SDS011;15458;53.346;-1.688;2023-09-30T13:06:19;10.45;;;2.97;;
28170;SDS011;15458;53.346;-1.688;2023-09-30T13:08:45;12.00;;;2.58;;
28170;SDS011;15458;53.346;-1.688;2023-09-30T13:11:11;11.32;;;3.53;;
28170;SDS011;15458;53.346;-1.688;2023-09-30T13:13:38;11.55;;;2.58;;
28170;SDS011;15458;53.346;-1.688;2023-09-30T13:16:04;11.82;;;2.72;;
28170;SDS011;15458;53.346;-1.688;2023-09-30T13:18:31;10.90;;;4.22;;
28170;SDS011;15458;53.346;-1.688;2023-09-30T13:20:57;10.90;;;3.20;;
28170;SDS011;15458;53.346;-1.688;2023-09-30T13:23:23;13.23;;;2.78;;
28170;SDS011;15458;53.346;-1.688;2023-09-30T13:25:49;13.75;;;2.60;;
28170;SDS011;15458;53.346;-1.688;2023-09-30T13:28:15;12.88;;;2.83;;
28170;SDS011;15458;53.346;-1.688;2023-09-30T13:30:41;13.30;;;3.30;;
28170;SDS011;15458;53.346;-1.688;2023-09-30T13:33:07;13.50;;;2.90;;
28170;SDS011;15458;53.346;-1.688;2023-09-30T13:35:33;16.27;;;3.35;;
28170;SDS011;15458;53.346;-1.688;2023-09-30T13:38:01;15.10;;;3.15;;
28170;SDS011;15458;53.346;-1.688;2023-09-30T13:40:28;12.15;;;2.80;;
28170;SDS011;15458;53.346;-1.688;2023-09-30T13:42:54;13.68;;;3.13;;
28170;SDS011;15458;53.346;-1.688;2023-09-30T13:45:21;14.88;;;3.13;;
28170;SDS011;15458;53.346;-1.688;2023-09-30T13:47:46;12.45;;;2.80;;
28170;SDS011;15458;53.346;-1.688;2023-09-30T13:50:12;15.65;;;3.13;;
28170;SDS011;15458;53.346;-1.688;2023-09-30T13:52:38;11.57;;;3.03;;
28170;SDS011;15458;53.346;-1.688;2023-09-30T13:55:04;14.32;;;3.25;;
28170;SDS011;15458;53.346;-1.688;2023-09-30T13:57:31;12.35;;;2.80;;
28170;SDS011;15458;53.346;-1.688;2023-09-30T13:59:56;11.57;;;3.05;;
28170;SDS011;15458;53.346;-1.688;2023-09-30T14:02:23;12.15;;;2.63;;
28170;SDS011;15458;53.346;-1.688;2023-09-30T14:04:49;15.07;;;2.97;;
28170;SDS011;15458;53.346;-1.688;2023-09-30T14:07:15;16.70;;;3.13;;
28170;SDS011;15458;53.346;-1.688;2023-09-30T14:09:43;10.20;;;2.70;;
28170;SDS011;15458;53.346;-1.688;2023-09-30T14:12:09;15.65;;;2.90;;
28170;SDS011;15458;53.346;-1.688;2023-09-30T14:14:35;14.32;;;2.78;;
28170;SDS011;15458;53.346;-1.688;2023-09-30T14:17:03;9.18;;;2.28;;
28170;SDS011;15458;53.346;-1.688;2023-09-30T14:19:33;7.32;;;2.47;;
28170;SDS011;15458;53.346;-1.688;2023-09-30T14:21:59;8.02;;;3.17;;
28170;SDS011;15458;53.346;-1.688;2023-09-30T14:24:27;7.70;;;3.35;;
28170;SDS011;15458;53.346;-1.688;2023-09-30T14:27:11;11.43;;;3.30;;
28170;SDS011;15458;53.346;-1.688;2023-09-30T14:29:45;8.25;;;2.65;;
28170;SDS011;15458;53.346;-1.688;2023-09-30T14:32:15;11.93;;;3.37;;
28170;SDS011;15458;53.346;-1.688;2023-09-30T14:34:42;10.90;;;2.95;;
28170;SDS011;15458;53.346;-1.688;2023-09-30T14:37:07;9.75;;;2.95;;
28170;SDS011;15458;53.346;-1.688;2023-09-30T14:39:35;8.02;;;2.40;;
28170;SDS011;15458;53.346;-1.688;2023-09-30T14:42:00;11.85;;;3.13;;
28170;SDS011;15458;53.346;-1.688;2023-09-30T14:44:26;9.27;;;3.05;;
28170;SDS011;15458;53.346;-1.688;2023-09-30T14:46:52;5.65;;;2.60;;
28170;SDS011;15458;53.346;-1.688;2023-09-30T14:49:18;12.57;;;3.60;;
28170;SDS011;15458;53.346;-1.688;2023-09-30T14:51:44;9.07;;;3.22;;
28170;SDS011;15458;53.346;-1.688;2023-09-30T14:54:16;10.45;;;2.90;;
28170;SDS011;15458;53.346;-1.688;2023-09-30T14:56:41;10.75;;;4.25;;